Time;durP1;ratioP1;P1;durP2;ratioP2;P2;SDS_P1;SDS_P2;PMS_P1;PMS_P2;Temp;Humidity;BMP_temperature;BMP_pressure;BME280_temperature;BME280_humidity;BME280_pressure;Samples;Min_cycle;Max_cycle;Signal;HPM_P1;HPM_P2
2022/03/31 00:03:39;;;;;;;17.65;5.63;;;;;;;5.22;64.66;100439.41;10334147;28;20042;-72
2022/03/31 00:08:40;;;;;;;20.38;7.22;;;;;;;5.23;65.38;100483.22;10333085;28;20039;-72
2022/03/31 00:13:42;;;;;;;19.73;7.93;;;;;;;4.12;65.73;100326.66;10332306;28;20046;-72
2022/03/31 00:18:43;;;;;;;18.67;6.90;;;;;;;5.03;65.92;100475.22;10334056;28;20100;-72
2022/03/31 00:23:44;;;;;;;18.05;6.18;;;;;;;4.96;65.50;100483.75;10334402;28;20196;-72
2022/03/31 00:28:44;;;;;;;17.80;7.05;;;;;;;4.04;66.12;100365.91;10333036;28;20137;-72
2022/03/31 00:33:45;;;;;;;13.80;5.65;;;;;;;4.61;66.79;100462.97;10332229;28;20136;-72
2022/03/31 00:44:06;;;;;;;9.85;5.18;;;;;;;4.39;66.43;100462.09;10332011;28;20050;-72
2022/03/31 00:49:07;;;;;;;15.57;5.30;;;;;;;3.55;67.04;100358.53;10332144;28;20039;-73
2022/03/31 00:54:09;;;;;;;12.60;5.35;;;;;;;4.59;66.71;100515.72;10331918;28;20129;-72
2022/03/31 00:59:13;;;;;;;17.48;5.85;;;;;;;4.68;66.76;100522.88;10330282;28;20072;-72
2022/03/31 01:04:15;;;;;;;17.02;6.45;;;;;;;3.59;67.00;100373.94;10332155;28;20189;-72
2022/03/31 01:09:16;;;;;;;17.77;6.60;;;;;;;3.83;67.47;100447.34;10332433;28;20047;-72
2022/03/31 01:14:17;;;;;;;13.07;5.00;;;;;;;4.37;67.63;100550.84;10332141;28;20407;-72
2022/03/31 01:19:18;;;;;;;17.15;6.55;;;;;;;3.57;67.47;100431.00;10333726;28;20065;-72
2022/03/31 01:24:19;;;;;;;13.57;5.70;;;;;;;4.33;67.66;100567.81;10369557;28;20050;-72
2022/03/31 01:29:22;;;;;;;14.57;6.25;;;;;;;4.39;67.38;100585.72;10371606;28;20049;-72
2022/03/31 01:34:22;;;;;;;10.73;5.20;;;;;;;3.90;67.53;100505.50;10371478;28;20085;-73
2022/03/31 01:39:23;;;;;;;11.07;5.55;;;;;;;3.50;67.38;100470.97;10371414;28;20062;-72
2022/03/31 01:44:24;;;;;;;14.38;5.60;;;;;;;4.06;67.31;100582.19;10372139;28;20040;-72
2022/03/31 01:49:25;;;;;;;13.48;5.32;;;;;;;4.10;67.56;100617.81;10371506;28;20165;-72
2022/03/31 01:54:26;;;;;;;12.25;5.50;;;;;;;3.88;67.97;100602.00;10371581;28;20133;-72
2022/03/31 01:59:38;;;;;;;30.67;6.63;;;;;;;3.80;69.73;100600.00;10371423;28;20128;-72
2022/03/31 02:04:41;;;;;;;14.18;6.50;;;;;;;3.34;68.19;100566.72;10376090;28;20044;-72
2022/03/31 02:09:42;;;;;;;11.32;6.47;;;;;;;3.40;68.24;100557.53;10379444;28;20072;-72
2022/03/31 02:14:43;;;;;;;11.48;6.65;;;;;;;3.69;68.68;100614.91;10377985;28;20092;-72
2022/03/31 02:19:44;;;;;;;14.85;6.80;;;;;;;3.35;68.77;100547.41;10378171;28;20054;-72
2022/03/31 02:24:45;;;;;;;14.65;6.18;;;;;;;3.80;69.08;100623.66;10378711;28;20132;-72
2022/03/31 02:29:47;;;;;;;10.70;6.00;;;;;;;3.81;68.83;100632.34;10377574;28;20058;-72
2022/03/31 02:34:48;;;;;;;12.82;6.00;;;;;;;3.52;68.92;100619.63;10378369;28;20042;-72
2022/03/31 02:39:49;;;;;;;17.27;6.35;;;;;;;3.42;69.29;100613.41;10377224;28;20111;-72
2022/03/31 02:44:49;;;;;;;22.73;10.60;;;;;;;3.33;68.87;100614.94;10378353;28;20075;-72
2022/03/31 02:49:50;;;;;;;28.77;11.07;;;;;;;3.50;69.38;100645.19;10377337;28;20103;-72
2022/03/31 03:00:11;;;;;;;25.02;10.00;;;;;;;3.03;69.01;100602.31;10376409;28;20037;-72
2022/03/31 03:05:12;;;;;;;37.75;12.25;;;;;;;3.33;68.88;100653.50;10377344;28;20057;-72
2022/03/31 03:10:13;;;;;;;56.72;21.80;;;;;;;3.63;68.79;100676.63;10364299;28;20061;-72
2022/03/31 03:15:14;;;;;;;49.17;23.15;;;;;;;3.72;68.70;100682.97;10359611;28;20050;-72
2022/03/31 03:20:16;;;;;;;47.38;22.05;;;;;;;3.77;68.56;100686.06;10372501;28;20514;-72
2022/03/31 03:25:18;;;;;;;31.23;15.30;;;;;;;3.16;68.30;100550.56;10370822;28;20042;-72
2022/03/31 03:30:20;;;;;;;32.65;13.95;;;;;;;4.35;68.34;100718.44;10380623;28;20049;-72
2022/03/31 03:35:21;;;;;;;23.85;11.95;;;;;;;3.40;67.46;100512.88;10381958;28;20127;-72
2022/03/31 03:40:22;;;;;;;37.30;13.05;;;;;;;3.18;67.25;100446.28;10384115;28;20069;-72
2022/03/31 03:45:23;;;;;;;30.75;9.02;;;;;;;5.16;66.94;100700.66;10375194;28;20068;-72
2022/03/31 03:50:25;;;;;;;23.13;9.05;;;;;;;4.34;67.08;100474.81;10378786;28;20065;-72
2022/03/31 03:55:26;;;;;;;18.33;7.88;;;;;;;6.45;66.09;100732.94;10368508;28;20050;-73
2022/03/31 04:00:28;;;;;;;16.23;7.43;;;;;;;6.65;65.42;100653.84;10382979;28;20136;-72
2022/03/31 04:05:29;;;;;;;21.70;9.60;;;;;;;7.46;64.63;100704.72;10380062;28;20080;-72
2022/03/31 04:10:30;;;;;;;16.83;8.70;;;;;;;7.57;64.12;100619.97;10380515;28;20467;-73
2022/03/31 04:15:30;;;;;;;22.73;8.38;;;;;;;8.73;63.09;100729.09;10361496;28;20065;-73
2022/03/31 04:20:31;;;;;;;15.10;8.18;;;;;;;9.08;62.45;100744.25;10361428;28;20145;-73
2022/03/31 04:25:33;;;;;;;16.08;7.68;;;;;;;9.69;61.28;100753.31;10372377;28;20097;-72
2022/03/31 04:30:33;;;;;;;13.93;8.20;;;;;;;9.55;60.63;100681.28;10361137;28;20041;-73
2022/03/31 04:35:36;;;;;;;13.95;8.52;;;;;;;9.30;59.83;100621.91;10376840;28;20045;-73
2022/03/31 04:40:37;;;;;;;12.65;7.50;;;;;;;9.20;59.49;100567.28;10383988;28;20037;-73
2022/03/31 04:45:38;;;;;;;12.43;7.78;;;;;;;10.50;58.10;100746.00;10378944;28;20505;-72
2022/03/31 04:50:38;;;;;;;14.32;7.85;;;;;;;9.35;58.14;100582.50;10384436;28;20095;-73
2022/03/31 04:55:40;;;;;;;13.20;7.80;;;;;;;10.29;58.19;100758.81;10382484;28;20576;-72
2022/03/31 05:00:41;;;;;;;13.95;8.23;;;;;;;8.62;58.32;100489.97;10357022;28;20033;-74
2022/03/31 05:05:41;;;;;;;12.23;7.93;;;;;;;10.05;58.22;100703.69;10365255;28;20054;-73
2022/03/31 05:10:42;;;;;;;18.48;8.35;;;;;;;10.68;57.85;100745.94;10361754;28;20050;-74
2022/03/31 05:15:43;;;;;;;16.23;8.57;;;;;;;9.61;57.32;100515.38;10380137;28;20140;-74
2022/03/31 05:20:44;;;;;;;14.55;8.60;;;;;;;9.92;57.10;100514.84;10368532;28;20596;-73
2022/03/31 05:25:45;;;;;;;14.18;8.10;;;;;;;11.57;56.36;100687.81;10357509;28;20055;-73
2022/03/31 05:30:46;;;;;;;12.40;8.25;;;;;;;12.24;55.59;100749.69;10365533;28;20200;-73
2022/03/31 05:35:47;;;;;;;15.93;8.02;;;;;;;12.09;55.24;100655.53;10372067;28;20136;-72
2022/03/31 05:40:48;;;;;;;12.45;7.68;;;;;;;12.12;54.39;100596.59;10376520;28;20049;-72
2022/03/31 05:45:49;;;;;;;16.90;8.55;;;;;;;13.26;53.83;100735.69;10349401;28;20057;-72
2022/03/31 05:50:50;;;;;;;13.20;7.43;;;;;;;13.62;52.84;100726.09;10349811;28;20042;-71
2022/03/31 05:55:51;;;;;;;14.57;7.88;;;;;;;14.13;51.95;100722.84;10338966;28;20144;-71
2022/03/31 06:00:53;;;;;;;11.25;7.05;;;;;;;14.57;51.34;100730.91;10363045;28;20569;-73
2022/03/31 06:05:54;;;;;;;12.75;6.53;;;;;;;14.50;49.97;100640.91;10380254;28;20041;-73
2022/03/31 06:10:55;;;;;;;10.40;6.47;;;;;;;15.37;48.66;100712.31;10364040;28;20046;-72
2022/03/31 06:15:56;;;;;;;10.13;6.03;;;;;;;15.66;47.93;100700.66;10338103;28;20125;-72
2022/03/31 06:20:57;;;;;;;8.50;5.43;;;;;;;16.40;46.89;100745.78;10337532;28;20434;-71
2022/03/31 06:25:58;;;;;;;12.73;5.88;;;;;;;16.44;45.94;100717.53;10337449;28;20050;-72
2022/03/31 06:30:59;;;;;;;7.18;5.20;;;;;;;16.67;45.01;100704.66;10339804;28;20038;-71
2022/03/31 06:36:00;;;;;;;8.55;5.28;;;;;;;16.83;43.24;100676.69;10332405;28;20065;-70
2022/03/31 06:41:07;;;;;;;11.88;4.40;;;;;;;17.53;41.94;100746.28;10377199;28;20084;-70
2022/03/31 06:46:08;;;;;;;11.25;4.15;;;;;;;17.66;41.53;100707.88;10367216;28;20045;-70
2022/03/31 06:51:10;;;;;;;12.90;4.50;;;;;;;18.31;41.02;100760.00;10335372;28;20047;-71
2022/03/31 06:56:14;;;;;;;5.00;3.70;;;;;;;18.55;40.15;100717.34;10336663;28;20042;-71
2022/03/31 07:01:14;;;;;;;8.90;3.43;;;;;;;18.49;39.55;100670.56;10344822;28;20502;-73
2022/03/31 07:06:16;;;;;;;6.80;3.17;;;;;;;19.16;38.37;100731.19;10365612;28;20080;-72
2022/03/31 07:11:17;;;;;;;9.32;3.20;;;;;;;19.37;37.91;100710.34;10360775;28;20034;-72
2022/03/31 07:16:18;;;;;;;8.13;3.33;;;;;;;19.88;37.63;100732.81;10335806;28;20061;-73
2022/03/31 07:21:18;;;;;;;4.93;2.70;;;;;;;19.90;36.32;100672.25;10345502;28;20062;-73
2022/03/31 07:26:20;;;;;;;7.80;3.47;;;;;;;20.34;35.79;100724.31;10345978;28;20046;-74
2022/03/31 07:31:28;;;;;;;7.45;3.20;;;;;;;20.68;35.11;100714.00;10335814;28;20450;-72
2022/03/31 07:36:28;;;;;;;6.40;2.97;;;;;;;20.70;35.00;100728.94;10334942;28;20042;-72
2022/03/31 07:41:29;;;;;;;9.00;3.35;;;;;;;20.18;34.52;100590.84;10337621;28;20062;-74
2022/03/31 07:46:32;;;;;;;15.57;4.75;;;;;;;20.98;33.68;100717.56;10334259;28;20455;-74
2022/03/31 07:51:33;;;;;;;19.73;3.97;;;;;;;20.83;33.00;100690.16;10334686;28;20498;-74
2022/03/31 07:56:35;;;;;;;12.13;5.00;;;;;;;21.25;32.87;100697.50;10354238;28;20038;-71
2022/03/31 08:01:36;;;;;;;16.13;4.28;;;;;;;20.72;32.29;100569.41;10351056;28;20470;-73
2022/03/31 08:06:37;;;;;;;9.82;4.53;;;;;;;21.42;32.08;100685.81;10373915;28;20046;-72
2022/03/31 08:11:38;;;;;;;6.05;3.28;;;;;;;21.37;31.94;100674.88;10374367;28;20458;-73
2022/03/31 08:16:39;;;;;;;8.00;3.40;;;;;;;21.40;31.74;100628.47;10367040;28;20049;-72
2022/03/31 08:21:42;;;;;;;14.90;4.60;;;;;;;21.85;31.05;100682.00;10348116;28;20054;-71
2022/03/31 08:26:45;;;;;;;9.98;3.88;;;;;;;21.80;30.53;100676.47;10335431;28;20049;-72
2022/03/31 08:31:46;;;;;;;7.22;3.60;;;;;;;21.89;30.57;100669.66;10354158;28;20158;-72
2022/03/31 08:36:47;;;;;;;9.85;4.07;;;;;;;21.71;29.75;100664.34;10373382;28;20140;-73
2022/03/31 08:41:48;;;;;;;11.40;4.03;;;;;;;21.95;29.90;100657.06;10350111;28;20039;-71
2022/03/31 08:46:50;;;;;;;21.80;4.43;;;;;;;21.87;28.92;100644.75;10332835;28;20038;-73
2022/03/31 08:51:51;;;;;;;12.80;4.25;;;;;;;22.01;29.44;100601.19;10333070;28;20074;-73
2022/03/31 08:56:53;;;;;;;10.27;4.10;;;;;;;22.19;28.67;100575.91;10332267;28;20510;-72
2022/03/31 09:01:54;;;;;;;11.05;4.45;;;;;;;22.55;28.77;100618.91;10331747;28;20049;-72
2022/03/31 09:07:07;;;;;;;12.70;4.03;;;;;;;22.32;28.31;100608.94;10346692;28;20045;-71
2022/03/31 09:12:07;;;;;;;13.30;4.63;;;;;;;;;;10331237;28;20092;-72
2022/03/31 09:17:14;;;;;;;12.27;4.35;;;;;;;22.15;28.04;100570.13;10331776;28;20046;-71
2022/03/31 09:22:15;;;;;;;10.55;4.45;;;;;;;22.39;27.64;100584.44;10331322;28;20406;-72
2022/03/31 09:40:36;;;;;;;10.95;4.50;;;;;;;22.73;26.91;100516.84;10516481;28;20461;-71
2022/03/31 09:45:38;;;;;;;11.27;4.03;;;;;;;22.60;27.04;100572.13;10452624;28;20079;-72
2022/03/31 09:50:40;;;;;;;14.40;3.95;;;;;;;22.21;27.56;100474.50;10482667;28;20127;-72
2022/03/31 09:55:45;;;;;;;12.10;4.10;;;;;;;22.71;27.67;100452.13;10462695;28;20053;-73
2022/03/31 10:00:47;;;;;;;12.48;4.10;;;;;;;23.47;27.05;100544.63;10481017;28;20064;-71
2022/03/31 10:05:48;;;;;;;8.82;3.92;;;;;;;23.69;26.77;100557.41;10489025;28;20033;-69
2022/03/31 10:10:49;;;;;;;11.55;4.10;;;;;;;23.67;26.23;100546.00;10475018;28;20037;-70
2022/03/31 10:15:59;;;;;;;8.95;3.63;;;;;;;23.54;26.37;100533.59;10470342;28;20120;-69
2022/03/31 10:21:00;;;;;;;11.27;4.10;;;;;;;23.53;26.63;100514.88;10487301;28;20128;-70
2022/03/31 10:26:01;;;;;;;8.02;3.63;;;;;;;23.56;26.69;100488.09;10487206;28;20138;-69
2022/03/31 10:31:07;;;;;;;7.03;3.28;;;;;;;23.68;27.00;100513.19;10487383;28;20044;-69
2022/03/31 10:36:12;;;;;;;13.30;4.07;;;;;;;22.47;26.61;100369.41;10487661;28;20094;-69
2022/03/31 10:41:13;;;;;;;9.10;3.75;;;;;;;23.08;26.16;100454.34;10430156;28;20148;-70
2022/03/31 10:46:16;;;;;;;10.90;3.55;;;;;;;22.16;26.38;100354.50;10445576;28;20046;-71
2022/03/31 10:51:17;;;;;;;11.38;4.18;;;;;;;22.22;26.82;100389.53;10418337;28;20037;-69
2022/03/31 10:56:24;;;;;;;14.65;3.90;;;;;;;22.99;27.04;100510.81;10434802;28;20045;-69
2022/03/31 11:01:38;;;;;;;10.45;3.95;;;;;;;22.70;26.90;100417.13;10442354;28;20091;-70
2022/03/31 11:06:51;;;;;;;9.30;4.05;;;;;;;23.49;26.54;100486.66;10364602;28;20054;-70
2022/03/31 11:11:52;;;;;;;10.97;3.97;;;;;;;23.51;26.60;100430.25;10358854;28;20038;-68
2022/03/31 11:16:56;;;;;;;8.02;3.80;;;;;;;22.43;26.29;100259.97;10357450;28;20054;-71
2022/03/31 11:21:56;;;;;;;10.65;4.25;;;;;;;22.36;26.53;100306.16;10351490;28;20515;-72
2022/03/31 11:26:57;;;;;;;7.47;3.83;;;;;;;22.45;26.92;100385.06;10359645;28;20046;-70
2022/03/31 11:31:59;;;;;;;8.40;4.32;;;;;;;23.10;27.26;100479.31;10363403;28;20045;-70
2022/03/31 11:37:00;;;;;;;10.80;3.97;;;;;;;22.13;26.71;100323.34;10361344;28;20103;-72
2022/03/31 11:42:01;;;;;;;12.05;4.07;;;;;;;23.08;27.05;100464.34;10376677;28;20058;-72
2022/03/31 11:47:02;;;;;;;10.10;4.53;;;;;;;23.19;26.85;100461.56;10369646;28;20057;-73
2022/03/31 11:52:05;;;;;;;9.77;4.70;;;;;;;23.13;27.31;100464.44;10370436;28;20045;-70
2022/03/31 11:57:08;;;;;;;16.55;6.13;;;;;;;22.88;27.58;100443.97;10368449;28;20044;-70
2022/03/31 12:02:17;;;;;;;8.40;3.80;;;;;;;22.65;28.12;100438.75;10361952;28;20120;-69
2022/03/31 12:07:19;;;;;;;15.52;4.05;;;;;;;22.02;28.27;100384.56;10364500;28;20037;-70
2022/03/31 12:12:20;;;;;;;15.15;4.97;;;;;;;22.41;28.23;100438.06;10365042;28;20034;-70
2022/03/31 12:17:22;;;;;;;15.50;3.92;;;;;;;21.88;27.80;100324.53;10350390;28;20068;-71
2022/03/31 12:22:33;;;;;;;9.48;3.55;;;;;;;21.92;28.34;100305.13;10374078;28;20041;-69
2022/03/31 12:27:44;;;;;;;12.98;6.38;;;;;;;22.01;28.10;100363.16;10374055;28;20041;-70
2022/03/31 12:32:49;;;;;;;13.35;5.38;;;;;;;21.85;28.28;100379.13;10374063;28;20048;-70
2022/03/31 12:37:51;;;;;;;10.13;4.07;;;;;;;21.30;28.76;100295.84;10374030;28;20065;-70
2022/03/31 12:42:57;;;;;;;20.20;4.70;;;;;;;21.20;28.79;100309.13;10371930;28;20050;-70
2022/03/31 12:48:07;;;;;;;15.25;4.35;;;;;;;21.78;28.75;100427.13;10373712;28;20046;-70
2022/03/31 12:53:08;;;;;;;17.52;4.93;;;;;;;20.84;29.12;100329.16;10372586;28;20390;-70
2022/03/31 12:58:10;;;;;;;13.50;4.43;;;;;;;20.59;29.16;100318.63;10369709;28;20049;-71
2022/03/31 13:03:11;;;;;;;12.90;4.10;;;;;;;20.38;29.47;100314.59;10368783;28;20087;-70
2022/03/31 13:08:12;;;;;;;8.38;4.22;;;;;;;21.02;29.76;100411.94;10414032;28;20037;-73
2022/03/31 13:13:13;;;;;;;13.70;4.95;;;;;;;20.14;29.76;100276.78;10394858;28;20046;-69
2022/03/31 13:18:14;;;;;;;13.23;4.15;;;;;;;20.92;29.70;100437.63;10367114;28;20140;-71
2022/03/31 13:23:15;;;;;;;13.75;4.47;;;;;;;20.06;30.53;100299.50;10351026;28;20054;-71
2022/03/31 13:28:17;;;;;;;13.48;4.40;;;;;;;20.68;30.80;100426.00;10361205;28;20042;-69
2022/03/31 13:33:19;;;;;;;11.00;4.25;;;;;;;20.63;31.07;100416.94;10355977;28;20065;-69
2022/03/31 13:38:20;;;;;;;19.80;4.18;;;;;;;20.56;31.19;100429.75;10348281;28;20140;-69
2022/03/31 13:43:20;;;;;;;12.88;3.83;;;;;;;20.47;31.30;100440.81;10349928;28;20034;-69
2022/03/31 13:48:21;;;;;;;11.90;3.72;;;;;;;20.33;31.67;100430.47;10354932;28;20133;-70
2022/03/31 14:04:02;;;;;;;9.50;4.15;;;;;;;19.55;32.21;100356.63;10353150;28;20045;-73
2022/03/31 14:09:03;;;;;;;11.68;4.45;;;;;;;19.07;32.36;100295.47;10350658;28;20054;-70
2022/03/31 14:14:10;;;;;;;20.80;4.50;;;;;;;19.22;32.42;100343.56;10366454;28;20045;-69
2022/03/31 14:19:11;;;;;;;15.55;4.40;;;;;;;19.70;33.13;100462.19;10357738;28;20053;-69
2022/03/31 14:24:13;;;;;;;16.42;4.90;;;;;;;19.48;33.96;100453.69;10354092;28;20038;-69
2022/03/31 14:29:14;;;;;;;12.30;5.40;;;;;;;19.18;34.83;100442.00;10371200;28;20050;-71
2022/03/31 14:34:16;;;;;;;18.58;5.78;;;;;;;18.99;35.52;100460.78;10359001;28;20125;-71
2022/03/31 14:39:19;;;;;;;14.18;6.88;;;;;;;17.22;36.12;100208.03;10363886;28;20058;-71
2022/03/31 14:44:24;;;;;;;11.30;5.05;;;;;;;18.53;36.83;100459.25;10362772;28;20041;-72
2022/03/31 14:49:25;;;;;;;18.48;5.97;;;;;;;17.63;37.43;100338.38;10365964;28;20080;-70
2022/03/31 14:54:26;;;;;;;11.95;4.85;;;;;;;17.39;37.92;100339.94;10359870;28;20061;-69
2022/03/31 14:59:27;;;;;;;11.50;5.32;;;;;;;17.86;37.83;100452.59;10362059;28;20050;-70
2022/03/31 15:04:28;;;;;;;70.93;41.30;;;;;;;17.00;37.99;100338.22;10368850;28;20053;-68
2022/03/31 15:14:48;;;;;;;28.10;12.48;;;;;;;17.32;38.90;100443.84;10361647;28;20073;-72
2022/03/31 15:19:49;;;;;;;17.08;10.55;;;;;;;16.15;39.17;100284.41;10358713;28;20073;-70
2022/03/31 15:24:50;;;;;;;15.65;8.52;;;;;;;16.92;39.41;100440.38;10360215;28;20072;-69
2022/03/31 15:29:51;;;;;;;24.95;13.80;;;;;;;16.45;39.78;100405.47;10365579;28;20055;-69
2022/03/31 15:34:52;;;;;;;36.22;16.35;;;;;;;16.03;40.10;100353.03;10360684;28;20133;-68
2022/03/31 15:39:54;;;;;;;15.27;7.70;;;;;;;16.28;40.02;100404.22;10358900;28;20089;-70
2022/03/31 15:44:54;;;;;;;16.08;6.70;;;;;;;16.21;40.33;100436.34;10357638;28;20045;-71
2022/03/31 15:49:55;;;;;;;13.13;5.80;;;;;;;16.17;40.87;100454.69;10359847;28;20052;-71
2022/03/31 15:54:56;;;;;;;14.05;6.43;;;;;;;16.04;41.35;100451.16;10360129;28;20088;-68
2022/03/31 15:59:57;;;;;;;14.00;6.00;;;;;;;15.86;41.49;100436.47;10357532;28;20069;-71
2022/03/31 16:04:58;;;;;;;11.15;5.68;;;;;;;14.99;41.84;100322.78;10375403;28;20046;-71
2022/03/31 16:10:00;;;;;;;11.10;4.82;;;;;;;14.82;41.87;100310.72;10366878;28;20409;-74
2022/03/31 16:15:02;;;;;;;9.90;4.60;;;;;;;15.37;42.13;100412.50;10367399;28;20049;-71
2022/03/31 16:20:04;;;;;;;11.48;4.43;;;;;;;15.38;42.43;100440.94;10373721;28;20081;-72
2022/03/31 16:25:05;;;;;;;10.32;4.28;;;;;;;15.26;42.67;100459.41;10410829;28;20144;-72
2022/03/31 16:30:07;;;;;;;11.60;4.32;;;;;;;14.89;42.80;100417.75;10415104;28;20132;-71
2022/03/31 16:35:08;;;;;;;10.80;4.40;;;;;;;14.96;42.30;100448.91;10396022;28;20486;-71
2022/03/31 16:40:10;;;;;;;10.52;4.40;;;;;;;15.09;42.59;100501.66;10368182;28;20058;-72
2022/03/31 16:45:11;;;;;;;7.82;4.78;;;;;;;14.78;43.25;100467.25;10339920;28;20052;-73
2022/03/31 16:50:12;;;;;;;8.60;4.50;;;;;;;14.57;43.17;100449.38;10351688;28;20527;-76
2022/03/31 16:55:13;;;;;;;8.02;4.22;;;;;;;14.67;43.16;100487.31;10362687;28;20046;-75
2022/03/31 17:00:14;;;;;;;9.35;4.38;;;;;;;14.73;42.77;100501.75;10364664;28;20453;-75
2022/03/31 17:05:15;;;;;;;8.57;4.43;;;;;;;14.38;43.13;100456.13;10368653;28;20045;-71
2022/03/31 17:10:18;;;;;;;11.48;4.47;;;;;;;14.57;42.85;100514.38;10370211;28;20567;-72
2022/03/31 17:15:21;;;;;;;7.57;4.03;;;;;;;14.53;42.88;100513.06;10371560;28;20041;-74
2022/03/31 17:20:22;;;;;;;7.10;3.83;;;;;;;14.42;43.54;100502.88;10370066;28;20041;-72
2022/03/31 17:25:28;;;;;;;7.68;4.10;;;;;;;14.36;43.34;100523.16;10371641;28;20046;-71
2022/03/31 17:30:30;;;;;;;8.25;4.20;;;;;;;14.09;44.12;100503.31;10369291;28;20379;-71
2022/03/31 17:35:31;;;;;;;11.23;4.43;;;;;;;14.07;44.41;100533.91;10372032;28;20054;-70
2022/03/31 17:40:33;;;;;;;13.35;5.40;;;;;;;13.82;44.13;100496.81;10372303;28;20144;-71
2022/03/31 17:45:34;;;;;;;10.93;5.82;;;;;;;13.85;44.42;100535.66;10346719;28;20533;-71
2022/03/31 17:50:38;;;;;;;10.05;5.38;;;;;;;13.53;44.87;100510.16;10362035;28;20052;-71
2022/03/31 17:55:40;;;;;;;11.65;5.95;;;;;;;12.87;44.94;100408.59;10379596;28;20046;-71
2022/03/31 18:00:44;;;;;;;12.82;6.10;;;;;;;13.47;45.73;100525.06;10380293;28;20062;-71
2022/03/31 18:05:45;;;;;;;11.38;6.20;;;;;;;12.85;45.44;100427.44;10377872;28;20057;-71
2022/03/31 18:10:46;;;;;;;19.38;8.45;;;;;;;13.02;45.89;100457.44;10369864;28;20398;-72
2022/03/31 18:15:48;;;;;;;16.70;8.15;;;;;;;12.28;45.79;100340.81;10349915;28;20048;-73
2022/03/31 18:20:48;;;;;;;17.50;7.43;;;;;;;13.11;46.21;100501.69;10376783;28;20041;-73
2022/03/31 18:25:50;;;;;;;17.77;7.93;;;;;;;13.18;46.61;100526.63;10374413;28;20493;-71
2022/03/31 18:36:10;;;;;;;22.33;11.90;;;;;;;12.12;47.39;100391.53;10370431;28;20054;-71
2022/03/31 18:41:11;;;;;;;22.35;12.32;;;;;;;12.76;47.67;100503.97;10365774;28;20046;-71
2022/03/31 18:46:13;;;;;;;26.50;13.88;;;;;;;11.79;48.53;100370.41;10375560;28;20516;-72
2022/03/31 18:51:14;;;;;;;33.50;15.23;;;;;;;12.44;48.36;100490.88;10376229;28;20188;-72
2022/03/31 18:56:17;;;;;;;30.83;15.98;;;;;;;12.55;48.69;100507.28;10355610;28;20046;-71
2022/03/31 19:01:18;;;;;;;34.40;16.67;;;;;;;12.43;48.87;100521.19;10365233;28;20042;-72
2022/03/31 19:11:38;;;;;;;29.95;16.77;;;;;;;12.00;49.79;100478.97;10346424;28;20042;-72
2022/03/31 19:16:39;;;;;;;32.80;17.75;;;;;;;11.63;50.65;100395.25;10336096;28;20323;-72
2022/03/31 19:21:40;;;;;;;37.15;17.65;;;;;;;11.42;50.95;100371.91;10336010;28;20046;-71
2022/03/31 19:26:42;;;;;;;33.85;17.13;;;;;;;12.02;51.37;100479.63;10335433;28;20124;-71
2022/03/31 19:31:43;;;;;;;33.97;16.85;;;;;;;12.11;51.42;100477.75;10335977;28;20053;-72
2022/03/31 19:36:44;;;;;;;33.13;16.58;;;;;;;10.50;51.93;100221.94;10335652;28;20065;-70
2022/03/31 19:41:46;;;;;;;34.70;16.55;;;;;;;10.78;52.29;100306.53;10335273;28;20422;-71
2022/03/31 19:46:49;;;;;;;31.85;16.67;;;;;;;11.82;52.51;100497.00;10335257;28;20414;-71
2022/03/31 19:51:50;;;;;;;28.73;15.63;;;;;;;11.66;53.14;100479.25;10334577;28;20042;-72
2022/03/31 19:56:52;;;;;;;33.28;16.98;;;;;;;10.97;54.01;100393.81;10334399;28;20046;-71
2022/03/31 20:01:53;;;;;;;30.55;15.82;;;;;;;11.41;54.41;100494.44;10334094;28;20057;-72
2022/03/31 20:06:54;;;;;;;28.73;15.25;;;;;;;11.45;54.38;100509.06;10334720;28;20048;-71
2022/03/31 20:11:57;;;;;;;29.15;15.55;;;;;;;11.23;54.71;100489.34;10332978;28;20461;-71
2022/03/31 20:16:58;;;;;;;26.58;14.55;;;;;;;11.30;55.36;100511.59;10333306;28;20070;-72
2022/03/31 20:21:59;;;;;;;31.23;15.27;;;;;;;10.30;55.20;100359.53;10333802;28;20116;-72
2022/03/31 20:27:00;;;;;;;23.60;13.80;;;;;;;11.13;56.13;100486.03;10334046;28;20068;-71
2022/03/31 20:32:02;;;;;;;23.83;14.13;;;;;;;11.00;56.42;100464.44;10333493;28;20141;-71
2022/03/31 20:37:04;;;;;;;24.02;13.88;;;;;;;10.04;56.88;100319.81;10333634;28;20062;-71
2022/03/31 20:42:05;;;;;;;27.40;13.95;;;;;;;10.69;57.15;100438.53;10332598;28;20074;-72
2022/03/31 20:47:06;;;;;;;23.50;14.15;;;;;;;10.05;57.30;100326.78;10333026;28;20502;-72
2022/03/31 20:52:08;;;;;;;27.23;13.45;;;;;;;10.82;57.68;100480.56;10333172;28;20049;-71
2022/03/31 20:57:09;;;;;;;26.52;14.57;;;;;;;10.56;58.44;100504.59;10332708;28;20050;-71
2022/03/31 21:02:10;;;;;;;24.15;13.13;;;;;;;10.12;59.30;100510.13;10333157;28;20049;-69
2022/03/31 21:07:11;;;;;;;24.63;12.85;;;;;;;9.58;59.37;100414.91;10360775;28;20050;-72
2022/03/31 21:12:12;;;;;;;22.20;12.75;;;;;;;10.17;59.45;100519.28;10332273;28;20117;-71
2022/03/31 21:17:12;;;;;;;28.90;12.65;;;;;;;10.09;59.58;100519.25;10341145;28;20528;-71
2022/03/31 21:22:13;;;;;;;23.25;13.65;;;;;;;9.32;59.95;100423.72;10331268;28;20038;-71
2022/03/31 21:27:14;;;;;;;21.65;12.35;;;;;;;9.54;60.32;100493.09;10332403;28;20050;-71
2022/03/31 21:32:14;;;;;;;19.80;12.68;;;;;;;9.35;60.64;100484.41;10332130;28;20461;-71
2022/03/31 21:37:15;;;;;;;23.15;13.48;;;;;;;8.94;61.25;100483.28;10330806;28;20062;-71
2022/03/31 21:42:17;;;;;;;25.25;12.88;;;;;;;9.10;61.72;100520.50;10331185;28;20502;-71
2022/03/31 21:47:19;;;;;;;26.92;13.77;;;;;;;9.11;61.92;100548.66;10331054;28;20558;-72
2022/03/31 21:52:20;;;;;;;31.15;16.45;;;;;;;8.95;61.84;100537.13;10346031;28;20057;-73
2022/03/31 21:57:20;;;;;;;27.95;15.23;;;;;;;8.76;62.38;100532.78;10345883;28;20116;-71
2022/03/31 22:02:21;;;;;;;29.27;15.73;;;;;;;8.60;62.43;100526.38;10330656;28;20046;-71
2022/03/31 22:07:23;;;;;;;26.88;15.00;;;;;;;8.33;62.97;100521.91;10330600;28;20046;-71
2022/03/31 22:12:24;;;;;;;47.28;22.90;;;;;;;7.74;63.53;100486.16;10331650;28;20076;-72
2022/03/31 22:17:25;;;;;;;37.67;17.80;;;;;;;7.51;63.66;100461.94;10330494;28;20060;-72
2022/03/31 22:22:26;;;;;;;34.10;18.17;;;;;;;7.75;63.05;100516.94;10331364;28;20034;-72
2022/03/31 22:27:26;;;;;;;35.70;16.52;;;;;;;7.76;63.72;100539.75;10331337;28;20553;-72
2022/03/31 22:32:27;;;;;;;30.83;15.40;;;;;;;7.55;64.10;100526.75;10330618;28;20092;-72
2022/03/31 22:37:28;;;;;;;31.88;15.35;;;;;;;7.11;64.17;100457.72;10337902;28;20062;-71
2022/03/31 22:42:29;;;;;;;30.77;16.73;;;;;;;7.35;64.74;100498.69;10337812;28;20077;-71
2022/03/31 22:47:30;;;;;;;31.52;18.02;;;;;;;7.18;65.16;100485.25;10337770;28;20043;-72
2022/03/31 22:52:31;;;;;;;36.72;17.05;;;;;;;6.74;64.83;100396.94;10337913;28;20043;-72
2022/03/31 22:57:32;;;;;;;33.10;16.33;;;;;;;7.17;64.24;100499.44;10337025;28;20061;-71
2022/03/31 23:02:34;;;;;;;45.80;20.27;;;;;;;6.28;65.24;100394.06;10336964;28;20038;-72
2022/03/31 23:07:37;;;;;;;40.20;18.98;;;;;;;6.08;66.29;100402.94;10336304;28;20490;-71
2022/03/31 23:12:37;;;;;;;29.80;16.30;;;;;;;6.28;66.92;100473.22;10336783;28;20048;-71
2022/03/31 23:17:38;;;;;;;28.20;15.00;;;;;;;5.68;67.00;100377.44;10336072;28;20046;-72
2022/03/31 23:22:39;;;;;;;34.67;16.85;;;;;;;5.44;66.67;100323.31;10336250;28;20132;-71
2022/03/31 23:27:40;;;;;;;38.10;16.30;;;;;;;6.16;67.37;100469.88;10335478;28;20066;-72
2022/03/31 23:32:41;;;;;;;28.90;13.77;;;;;;;5.98;67.25;100442.47;10350930;28;20663;-72
2022/03/31 23:37:42;;;;;;;36.90;16.27;;;;;;;5.38;66.61;100333.53;10335848;28;20112;-72
2022/03/31 23:42:43;;;;;;;33.97;17.67;;;;;;;5.68;67.32;100380.06;10336168;28;20069;-72
2022/03/31 23:47:44;;;;;;;33.20;16.08;;;;;;;6.04;67.57;100414.72;10334830;28;20042;-72